Jerseyville, IL

2:06 AM CST on November 26, 2014 (GMT -0600)
Saint Charles County Smartt | Change Station
CLOSE
Current Station
Airport
Location: St. Charles,
Elevation: 436 ft
Nearby Weather Stations

Elev 436 ft 38.93 °N, 90.43 °W | Updated 12 minutes ago

Clear
Clear
28 °F
Feels Like 22 °F
N
6
Wind Variable Wind from East

Today
High -- | Low -- °F
--% Chance of Precip.
Yesterday
High -- | Low -- °F
Precip. -- in
6:56 AM 4:40 PM
Waxing Crescent, 17% visible
Pressure 30.12 in
Visibility 8.0 miles
Clouds Clear
Windchill 22 °F
Dew Point 26 °F
Humidity 92%
Rainfall 0.00 in
Snow Depth Not available.
UV 0 out of 12
Pollen .70 out of 12
Air Quality Not available.
Flu Activity Not available.
METAR KSET 260754Z AUTO 08005KT 8SM CLR M02/M03 A3011 RMK AO2 SLP199 T10221033

More Conditions Fewer Conditions

Pressure 30.12 in
Visibility 8.0 miles
Clouds Clear
Windchill 22 °F
Dew Point 26 °F
Humidity 92%
Rainfall 0.00 in
Snow Depth Not available.
UV 0 out of 12
Pollen .70 out of 12
Air Quality Not available.
Flu Activity Not available.
METAR KSET 260754Z AUTO 08005KT 8SM CLR M02/M03 A3011 RMK AO2 SLP199 T10221033

More Conditions Fewer Conditions

10-Day Weather Forecast

Almanac

Astronomy

Nov. 26, 2014 Rise Set
Actual Time
Civil Twilight
Nautical Twilight
Astronomical Twilight
Moon
Length of Visible Light
Length of Day
Tomorrow will be .
, % of the Moon is Illuminated

Today's Extremes

State Highs State Lows

Community

WunderPhotos

Upload Photos

1,773,694 photos uploaded!

WunderBlogs® & News

Nearby

Air Quality

  Air Quality AQ Index Pollutant
Not available.

Snow Depth

Station Depth Elevation

Earthquake Activity

City Distance Mag. Time & Date
Minimum magnitude displayed is 2.5.

Coastal Water Temperatures

Place Temperature

Nearby Weather Stations